sensor_id;sensor_type;location;lat;lon;timestamp;P1;durP1;ratioP1;P2;durP2;ratioP2
47009;SDS011;59230;54.164;-3.124;2022-12-07T00:01:11;10.57;;;1.70;;
47009;SDS011;59230;54.164;-3.124;2022-12-07T00:03:40;9.05;;;1.77;;
47009;SDS011;59230;54.164;-3.124;2022-12-07T00:06:12;11.40;;;1.92;;
47009;SDS011;59230;54.164;-3.124;2022-12-07T00:08:41;8.95;;;1.85;;
47009;SDS011;59230;54.164;-3.124;2022-12-07T00:11:09;6.68;;;1.52;;
47009;SDS011;59230;54.164;-3.124;2022-12-07T00:13:39;16.13;;;2.20;;
47009;SDS011;59230;54.164;-3.124;2022-12-07T00:16:08;12.48;;;1.63;;
47009;SDS011;59230;54.164;-3.124;2022-12-07T00:18:39;10.38;;;2.22;;
47009;SDS011;59230;54.164;-3.124;2022-12-07T00:21:07;9.52;;;2.00;;
47009;SDS011;59230;54.164;-3.124;2022-12-07T00:23:43;5.43;;;1.30;;
47009;SDS011;59230;54.164;-3.124;2022-12-07T00:26:21;9.30;;;1.60;;
47009;SDS011;59230;54.164;-3.124;2022-12-07T00:28:56;7.73;;;1.67;;
47009;SDS011;59230;54.164;-3.124;2022-12-07T00:31:29;11.38;;;2.03;;
47009;SDS011;59230;54.164;-3.124;2022-12-07T00:34:07;14.43;;;1.60;;
47009;SDS011;59230;54.164;-3.124;2022-12-07T00:36:38;8.38;;;2.13;;
47009;SDS011;59230;54.164;-3.124;2022-12-07T00:39:04;7.85;;;2.08;;
47009;SDS011;59230;54.164;-3.124;2022-12-07T00:41:33;8.45;;;1.50;;
47009;SDS011;59230;54.164;-3.124;2022-12-07T00:43:59;6.20;;;1.33;;
47009;SDS011;59230;54.164;-3.124;2022-12-07T00:46:26;11.38;;;1.60;;
47009;SDS011;59230;54.164;-3.124;2022-12-07T00:48:54;4.97;;;1.48;;
47009;SDS011;59230;54.164;-3.124;2022-12-07T00:51:21;6.25;;;1.20;;
47009;SDS011;59230;54.164;-3.124;2022-12-07T00:53:50;12.23;;;1.70;;
47009;SDS011;59230;54.164;-3.124;2022-12-07T00:56:18;6.57;;;1.50;;
47009;SDS011;59230;54.164;-3.124;2022-12-07T00:58:55;6.90;;;1.60;;
47009;SDS011;59230;54.164;-3.124;2022-12-07T01:01:29;9.23;;;1.70;;
47009;SDS011;59230;54.164;-3.124;2022-12-07T01:03:59;7.85;;;1.20;;
47009;SDS011;59230;54.164;-3.124;2022-12-07T01:06:28;7.85;;;1.42;;
47009;SDS011;59230;54.164;-3.124;2022-12-07T01:08:54;6.35;;;1.40;;
47009;SDS011;59230;54.164;-3.124;2022-12-07T01:11:24;10.38;;;1.95;;
47009;SDS011;59230;54.164;-3.124;2022-12-07T01:13:53;7.25;;;1.60;;
47009;SDS011;59230;54.164;-3.124;2022-12-07T01:16:21;6.93;;;1.25;;
47009;SDS011;59230;54.164;-3.124;2022-12-07T01:18:50;8.30;;;1.63;;
47009;SDS011;59230;54.164;-3.124;2022-12-07T01:21:21;5.10;;;1.20;;
47009;SDS011;59230;54.164;-3.124;2022-12-07T01:23:49;7.20;;;1.33;;
47009;SDS011;59230;54.164;-3.124;2022-12-07T01:26:17;8.32;;;1.65;;
47009;SDS011;59230;54.164;-3.124;2022-12-07T01:28:47;7.63;;;1.60;;
47009;SDS011;59230;54.164;-3.124;2022-12-07T01:31:14;10.32;;;1.88;;
47009;SDS011;59230;54.164;-3.124;2022-12-07T01:33:45;3.90;;;1.02;;
47009;SDS011;59230;54.164;-3.124;2022-12-07T01:36:23;7.93;;;2.40;;
47009;SDS011;59230;54.164;-3.124;2022-12-07T01:38:53;8.65;;;1.88;;
47009;SDS011;59230;54.164;-3.124;2022-12-07T01:41:23;7.05;;;1.23;;
47009;SDS011;59230;54.164;-3.124;2022-12-07T01:46:53;10.63;;;1.58;;
47009;SDS011;59230;54.164;-3.124;2022-12-07T01:52:07;6.35;;;1.30;;
47009;SDS011;59230;54.164;-3.124;2022-12-07T01:54:39;7.78;;;1.30;;
47009;SDS011;59230;54.164;-3.124;2022-12-07T01:57:07;6.07;;;1.50;;
47009;SDS011;59230;54.164;-3.124;2022-12-07T01:59:35;5.03;;;1.00;;
47009;SDS011;59230;54.164;-3.124;2022-12-07T02:02:02;7.22;;;1.60;;
47009;SDS011;59230;54.164;-3.124;2022-12-07T02:04:30;6.47;;;1.17;;
47009;SDS011;59230;54.164;-3.124;2022-12-07T02:06:59;6.38;;;1.50;;
47009;SDS011;59230;54.164;-3.124;2022-12-07T02:09:26;2.72;;;1.00;;
47009;SDS011;59230;54.164;-3.124;2022-12-07T02:11:51;5.97;;;1.50;;
47009;SDS011;59230;54.164;-3.124;2022-12-07T02:14:19;8.57;;;1.23;;
47009;SDS011;59230;54.164;-3.124;2022-12-07T02:16:51;3.85;;;0.90;;
47009;SDS011;59230;54.164;-3.124;2022-12-07T02:28:37;9.40;;;1.20;;
47009;SDS011;59230;54.164;-3.124;2022-12-07T02:31:21;4.45;;;1.10;;
47009;SDS011;59230;54.164;-3.124;2022-12-07T02:34:03;4.80;;;0.90;;
47009;SDS011;59230;54.164;-3.124;2022-12-07T02:36:57;6.72;;;1.13;;
47009;SDS011;59230;54.164;-3.124;2022-12-07T02:42:02;2.15;;;0.80;;
47009;SDS011;59230;54.164;-3.124;2022-12-07T02:47:05;6.53;;;1.42;;
47009;SDS011;59230;54.164;-3.124;2022-12-07T02:49:36;6.55;;;1.10;;
47009;SDS011;59230;54.164;-3.124;2022-12-07T02:54:37;5.63;;;1.00;;
47009;SDS011;59230;54.164;-3.124;2022-12-07T03:00:07;8.07;;;1.25;;
47009;SDS011;59230;54.164;-3.124;2022-12-07T03:05:28;5.63;;;1.13;;
47009;SDS011;59230;54.164;-3.124;2022-12-07T03:08:13;4.95;;;1.00;;
47009;SDS011;59230;54.164;-3.124;2022-12-07T03:13:32;6.70;;;1.08;;
47009;SDS011;59230;54.164;-3.124;2022-12-07T03:18:32;6.50;;;0.82;;
47009;SDS011;59230;54.164;-3.124;2022-12-07T03:21:02;6.97;;;1.10;;
47009;SDS011;59230;54.164;-3.124;2022-12-07T03:23:38;3.65;;;0.85;;
47009;SDS011;59230;54.164;-3.124;2022-12-07T03:26:08;8.60;;;1.02;;
47009;SDS011;59230;54.164;-3.124;2022-12-07T03:28:40;6.13;;;1.27;;
47009;SDS011;59230;54.164;-3.124;2022-12-07T03:31:12;7.10;;;1.20;;
47009;SDS011;59230;54.164;-3.124;2022-12-07T03:36:47;8.82;;;1.10;;
47009;SDS011;59230;54.164;-3.124;2022-12-07T03:42:16;5.80;;;1.60;;
47009;SDS011;59230;54.164;-3.124;2022-12-07T03:44:43;4.57;;;0.88;;
47009;SDS011;59230;54.164;-3.124;2022-12-07T03:50:14;5.30;;;0.90;;
47009;SDS011;59230;54.164;-3.124;2022-12-07T03:52:47;7.68;;;1.20;;
47009;SDS011;59230;54.164;-3.124;2022-12-07T03:55:30;3.63;;;0.75;;
47009;SDS011;59230;54.164;-3.124;2022-12-07T03:58:00;6.60;;;1.00;;
47009;SDS011;59230;54.164;-3.124;2022-12-07T04:00:33;9.90;;;1.05;;
47009;SDS011;59230;54.164;-3.124;2022-12-07T04:03:00;7.80;;;1.10;;
47009;SDS011;59230;54.164;-3.124;2022-12-07T04:05:28;7.70;;;1.13;;
47009;SDS011;59230;54.164;-3.124;2022-12-07T04:07:54;4.60;;;0.88;;
47009;SDS011;59230;54.164;-3.124;2022-12-07T04:10:22;6.82;;;1.00;;
47009;SDS011;59230;54.164;-3.124;2022-12-07T04:12:49;3.05;;;0.90;;
47009;SDS011;59230;54.164;-3.124;2022-12-07T04:15:17;8.40;;;1.35;;
47009;SDS011;59230;54.164;-3.124;2022-12-07T04:17:43;7.97;;;1.10;;
47009;SDS011;59230;54.164;-3.124;2022-12-07T04:20:10;2.47;;;0.73;;
47009;SDS011;59230;54.164;-3.124;2022-12-07T04:22:36;6.32;;;1.20;;
47009;SDS011;59230;54.164;-3.124;2022-12-07T04:25:02;4.60;;;0.88;;
47009;SDS011;59230;54.164;-3.124;2022-12-07T04:27:28;6.97;;;0.77;;
47009;SDS011;59230;54.164;-3.124;2022-12-07T04:29:56;6.20;;;1.08;;
47009;SDS011;59230;54.164;-3.124;2022-12-07T04:32:24;3.60;;;0.90;;
47009;SDS011;59230;54.164;-3.124;2022-12-07T04:34:52;6.50;;;1.25;;
47009;SDS011;59230;54.164;-3.124;2022-12-07T04:37:19;2.67;;;0.80;;
47009;SDS011;59230;54.164;-3.124;2022-12-07T04:39:46;5.70;;;1.10;;
47009;SDS011;59230;54.164;-3.124;2022-12-07T04:42:15;9.38;;;1.30;;
47009;SDS011;59230;54.164;-3.124;2022-12-07T04:44:42;2.60;;;0.98;;
47009;SDS011;59230;54.164;-3.124;2022-12-07T04:47:09;5.82;;;0.80;;
47009;SDS011;59230;54.164;-3.124;2022-12-07T04:49:38;4.78;;;0.88;;
47009;SDS011;59230;54.164;-3.124;2022-12-07T04:52:05;5.35;;;1.13;;
47009;SDS011;59230;54.164;-3.124;2022-12-07T04:54:30;5.15;;;0.93;;
47009;SDS011;59230;54.164;-3.124;2022-12-07T04:56:58;4.07;;;0.80;;
47009;SDS011;59230;54.164;-3.124;2022-12-07T04:59:25;6.85;;;1.10;;
47009;SDS011;59230;54.164;-3.124;2022-12-07T05:01:52;8.80;;;0.82;;
47009;SDS011;59230;54.164;-3.124;2022-12-07T05:04:19;5.03;;;1.20;;
47009;SDS011;59230;54.164;-3.124;2022-12-07T05:06:46;4.75;;;0.95;;
47009;SDS011;59230;54.164;-3.124;2022-12-07T05:09:14;7.70;;;1.15;;
47009;SDS011;59230;54.164;-3.124;2022-12-07T05:11:40;7.10;;;1.10;;
47009;SDS011;59230;54.164;-3.124;2022-12-07T05:16:42;4.70;;;0.80;;
47009;SDS011;59230;54.164;-3.124;2022-12-07T05:19:09;4.20;;;0.98;;
47009;SDS011;59230;54.164;-3.124;2022-12-07T05:21:39;4.05;;;1.10;;
47009;SDS011;59230;54.164;-3.124;2022-12-07T05:24:05;2.72;;;0.80;;
47009;SDS011;59230;54.164;-3.124;2022-12-07T05:26:34;3.75;;;0.90;;
47009;SDS011;59230;54.164;-3.124;2022-12-07T05:29:00;7.82;;;0.82;;
47009;SDS011;59230;54.164;-3.124;2022-12-07T05:31:27;10.60;;;1.45;;
47009;SDS011;59230;54.164;-3.124;2022-12-07T05:33:56;3.92;;;1.48;;
47009;SDS011;59230;54.164;-3.124;2022-12-07T05:36:23;3.40;;;0.90;;
47009;SDS011;59230;54.164;-3.124;2022-12-07T05:38:51;6.95;;;1.38;;
47009;SDS011;59230;54.164;-3.124;2022-12-07T05:41:18;5.03;;;0.90;;
47009;SDS011;59230;54.164;-3.124;2022-12-07T05:44:02;6.82;;;0.90;;
47009;SDS011;59230;54.164;-3.124;2022-12-07T05:46:29;9.45;;;1.05;;
47009;SDS011;59230;54.164;-3.124;2022-12-07T05:48:55;4.30;;;0.98;;
47009;SDS011;59230;54.164;-3.124;2022-12-07T05:51:21;1.77;;;0.70;;
47009;SDS011;59230;54.164;-3.124;2022-12-07T05:53:48;8.90;;;1.10;;
47009;SDS011;59230;54.164;-3.124;2022-12-07T05:56:16;1.75;;;0.80;;
47009;SDS011;59230;54.164;-3.124;2022-12-07T05:58:42;7.20;;;1.00;;
47009;SDS011;59230;54.164;-3.124;2022-12-07T06:01:30;6.88;;;1.00;;
47009;SDS011;59230;54.164;-3.124;2022-12-07T06:03:56;3.92;;;0.98;;
47009;SDS011;59230;54.164;-3.124;2022-12-07T06:06:23;5.10;;;0.90;;
47009;SDS011;59230;54.164;-3.124;2022-12-07T06:08:49;4.90;;;0.90;;
47009;SDS011;59230;54.164;-3.124;2022-12-07T06:11:14;5.05;;;0.93;;
47009;SDS011;59230;54.164;-3.124;2022-12-07T06:14:00;5.20;;;1.10;;
47009;SDS011;59230;54.164;-3.124;2022-12-07T06:16:27;5.35;;;1.20;;
47009;SDS011;59230;54.164;-3.124;2022-12-07T06:18:53;6.85;;;1.38;;
47009;SDS011;59230;54.164;-3.124;2022-12-07T06:21:19;6.60;;;1.40;;
47009;SDS011;59230;54.164;-3.124;2022-12-07T06:23:47;7.38;;;1.40;;
47009;SDS011;59230;54.164;-3.124;2022-12-07T06:26:14;6.95;;;1.23;;
47009;SDS011;59230;54.164;-3.124;2022-12-07T06:28:42;11.85;;;1.40;;
47009;SDS011;59230;54.164;-3.124;2022-12-07T06:31:08;10.60;;;1.23;;
47009;SDS011;59230;54.164;-3.124;2022-12-07T06:33:36;5.13;;;1.02;;
47009;SDS011;59230;54.164;-3.124;2022-12-07T06:36:02;7.05;;;1.15;;
47009;SDS011;59230;54.164;-3.124;2022-12-07T06:38:28;3.67;;;0.93;;
47009;SDS011;59230;54.164;-3.124;2022-12-07T06:40:53;5.75;;;1.35;;
47009;SDS011;59230;54.164;-3.124;2022-12-07T06:43:20;15.88;;;1.52;;
47009;SDS011;59230;54.164;-3.124;2022-12-07T06:45:46;5.70;;;1.55;;
47009;SDS011;59230;54.164;-3.124;2022-12-07T06:48:13;4.20;;;1.08;;
47009;SDS011;59230;54.164;-3.124;2022-12-07T06:50:40;16.42;;;1.55;;
47009;SDS011;59230;54.164;-3.124;2022-12-07T06:53:11;8.45;;;1.40;;
47009;SDS011;59230;54.164;-3.124;2022-12-07T06:55:38;7.60;;;1.42;;
47009;SDS011;59230;54.164;-3.124;2022-12-07T06:58:04;11.43;;;2.38;;
47009;SDS011;59230;54.164;-3.124;2022-12-07T07:00:30;4.95;;;1.48;;
47009;SDS011;59230;54.164;-3.124;2022-12-07T07:02:57;13.98;;;1.88;;
47009;SDS011;59230;54.164;-3.124;2022-12-07T07:05:23;13.27;;;2.05;;
47009;SDS011;59230;54.164;-3.124;2022-12-07T07:07:51;5.75;;;2.10;;
47009;SDS011;59230;54.164;-3.124;2022-12-07T07:10:19;12.05;;;2.70;;
47009;SDS011;59230;54.164;-3.124;2022-12-07T07:12:44;10.65;;;2.67;;
47009;SDS011;59230;54.164;-3.124;2022-12-07T07:15:10;8.02;;;2.30;;
47009;SDS011;59230;54.164;-3.124;2022-12-07T07:17:38;6.25;;;2.28;;
47009;SDS011;59230;54.164;-3.124;2022-12-07T07:20:03;10.18;;;2.15;;
47009;SDS011;59230;54.164;-3.124;2022-12-07T07:22:31;7.18;;;2.10;;
47009;SDS011;59230;54.164;-3.124;2022-12-07T07:24:58;7.18;;;1.88;;
47009;SDS011;59230;54.164;-3.124;2022-12-07T07:27:25;10.43;;;2.03;;
47009;SDS011;59230;54.164;-3.124;2022-12-07T07:29:51;6.63;;;2.10;;
47009;SDS011;59230;54.164;-3.124;2022-12-07T07:32:17;9.05;;;2.05;;
47009;SDS011;59230;54.164;-3.124;2022-12-07T07:34:44;4.50;;;1.70;;
47009;SDS011;59230;54.164;-3.124;2022-12-07T07:37:11;6.80;;;1.83;;
47009;SDS011;59230;54.164;-3.124;2022-12-07T07:39:37;6.07;;;1.83;;
47009;SDS011;59230;54.164;-3.124;2022-12-07T07:42:03;7.60;;;2.33;;
47009;SDS011;59230;54.164;-3.124;2022-12-07T07:44:29;6.20;;;1.65;;
47009;SDS011;59230;54.164;-3.124;2022-12-07T07:46:57;9.13;;;1.52;;
47009;SDS011;59230;54.164;-3.124;2022-12-07T07:49:24;8.38;;;1.98;;
47009;SDS011;59230;54.164;-3.124;2022-12-07T07:51:53;7.78;;;1.80;;
47009;SDS011;59230;54.164;-3.124;2022-12-07T07:54:19;7.43;;;1.83;;
47009;SDS011;59230;54.164;-3.124;2022-12-07T07:56:46;8.98;;;1.88;;
47009;SDS011;59230;54.164;-3.124;2022-12-07T07:59:12;5.63;;;1.60;;
47009;SDS011;59230;54.164;-3.124;2022-12-07T08:01:42;6.97;;;1.55;;
47009;SDS011;59230;54.164;-3.124;2022-12-07T08:04:09;5.13;;;1.35;;
47009;SDS011;59230;54.164;-3.124;2022-12-07T08:06:35;4.38;;;1.40;;
47009;SDS011;59230;54.164;-3.124;2022-12-07T08:09:03;6.32;;;1.20;;
47009;SDS011;59230;54.164;-3.124;2022-12-07T08:11:30;5.63;;;1.50;;
47009;SDS011;59230;54.164;-3.124;2022-12-07T08:13:57;11.38;;;1.80;;
47009;SDS011;59230;54.164;-3.124;2022-12-07T08:16:23;5.82;;;1.70;;
47009;SDS011;59230;54.164;-3.124;2022-12-07T08:18:50;6.47;;;2.00;;
47009;SDS011;59230;54.164;-3.124;2022-12-07T08:21:17;8.98;;;2.17;;
47009;SDS011;59230;54.164;-3.124;2022-12-07T08:23:44;6.75;;;1.50;;
47009;SDS011;59230;54.164;-3.124;2022-12-07T08:26:14;4.70;;;1.70;;
47009;SDS011;59230;54.164;-3.124;2022-12-07T08:28:42;12.07;;;2.55;;
47009;SDS011;59230;54.164;-3.124;2022-12-07T08:31:13;17.05;;;2.92;;
47009;SDS011;59230;54.164;-3.124;2022-12-07T08:33:47;9.80;;;2.35;;
47009;SDS011;59230;54.164;-3.124;2022-12-07T08:36:15;17.15;;;2.63;;
47009;SDS011;59230;54.164;-3.124;2022-12-07T08:38:41;18.35;;;3.13;;
47009;SDS011;59230;54.164;-3.124;2022-12-07T08:41:09;11.23;;;3.25;;
47009;SDS011;59230;54.164;-3.124;2022-12-07T08:43:36;14.23;;;2.80;;
47009;SDS011;59230;54.164;-3.124;2022-12-07T08:48:52;11.88;;;1.98;;
47009;SDS011;59230;54.164;-3.124;2022-12-07T08:51:20;9.18;;;2.58;;
47009;SDS011;59230;54.164;-3.124;2022-12-07T08:53:49;9.30;;;2.65;;
47009;SDS011;59230;54.164;-3.124;2022-12-07T08:56:20;9.77;;;2.47;;
47009;SDS011;59230;54.164;-3.124;2022-12-07T08:58:48;15.95;;;3.85;;
47009;SDS011;59230;54.164;-3.124;2022-12-07T09:01:17;35.88;;;14.93;;
47009;SDS011;59230;54.164;-3.124;2022-12-07T09:03:45;40.28;;;21.90;;
47009;SDS011;59230;54.164;-3.124;2022-12-07T09:06:13;49.90;;;25.13;;
47009;SDS011;59230;54.164;-3.124;2022-12-07T09:08:44;57.00;;;32.00;;
47009;SDS011;59230;54.164;-3.124;2022-12-07T09:11:15;44.20;;;22.58;;
47009;SDS011;59230;54.164;-3.124;2022-12-07T09:13:41;29.77;;;15.77;;
47009;SDS011;59230;54.164;-3.124;2022-12-07T09:16:06;47.00;;;25.98;;
47009;SDS011;59230;54.164;-3.124;2022-12-07T09:18:32;58.50;;;28.80;;
47009;SDS011;59230;54.164;-3.124;2022-12-07T09:20:58;64.15;;;35.80;;
47009;SDS011;59230;54.164;-3.124;2022-12-07T09:23:25;52.13;;;29.98;;
47009;SDS011;59230;54.164;-3.124;2022-12-07T09:25:52;25.98;;;10.57;;
47009;SDS011;59230;54.164;-3.124;2022-12-07T09:28:18;15.45;;;5.88;;
47009;SDS011;59230;54.164;-3.124;2022-12-07T09:30:47;10.48;;;4.45;;
47009;SDS011;59230;54.164;-3.124;2022-12-07T09:33:15;6.32;;;2.67;;
47009;SDS011;59230;54.164;-3.124;2022-12-07T09:35:46;7.43;;;3.03;;
47009;SDS011;59230;54.164;-3.124;2022-12-07T09:38:15;10.65;;;2.97;;
47009;SDS011;59230;54.164;-3.124;2022-12-07T09:40:41;12.73;;;2.22;;
47009;SDS011;59230;54.164;-3.124;2022-12-07T09:43:13;8.80;;;1.88;;
47009;SDS011;59230;54.164;-3.124;2022-12-07T09:45:44;7.63;;;2.00;;
47009;SDS011;59230;54.164;-3.124;2022-12-07T09:48:16;10.20;;;5.38;;
47009;SDS011;59230;54.164;-3.124;2022-12-07T09:50:47;17.33;;;6.68;;
47009;SDS011;59230;54.164;-3.124;2022-12-07T09:53:30;22.25;;;11.02;;
47009;SDS011;59230;54.164;-3.124;2022-12-07T09:56:01;30.52;;;15.63;;
47009;SDS011;59230;54.164;-3.124;2022-12-07T09:58:28;31.42;;;16.35;;
47009;SDS011;59230;54.164;-3.124;2022-12-07T10:00:57;24.65;;;13.07;;
47009;SDS011;59230;54.164;-3.124;2022-12-07T10:03:26;24.52;;;12.70;;
47009;SDS011;59230;54.164;-3.124;2022-12-07T10:05:55;24.38;;;12.43;;
47009;SDS011;59230;54.164;-3.124;2022-12-07T10:08:24;27.02;;;11.68;;
47009;SDS011;59230;54.164;-3.124;2022-12-07T10:10:55;41.63;;;23.02;;
47009;SDS011;59230;54.164;-3.124;2022-12-07T10:13:44;34.67;;;16.30;;
47009;SDS011;59230;54.164;-3.124;2022-12-07T10:18:56;13.00;;;7.18;;
47009;SDS011;59230;54.164;-3.124;2022-12-07T10:21:23;13.90;;;5.75;;
47009;SDS011;59230;54.164;-3.124;2022-12-07T10:29:18;6.55;;;2.88;;
47009;SDS011;59230;54.164;-3.124;2022-12-07T10:32:34;10.98;;;2.85;;
47009;SDS011;59230;54.164;-3.124;2022-12-07T10:34:41;10.27;;;2.70;;
47009;SDS011;59230;54.164;-3.124;2022-12-07T10:39:56;11.80;;;2.85;;
47009;SDS011;59230;54.164;-3.124;2022-12-07T10:42:30;10.77;;;2.90;;
47009;SDS011;59230;54.164;-3.124;2022-12-07T10:47:46;9.98;;;2.92;;
47009;SDS011;59230;54.164;-3.124;2022-12-07T10:56:02;10.35;;;2.55;;
47009;SDS011;59230;54.164;-3.124;2022-12-07T11:06:47;14.07;;;3.88;;
47009;SDS011;59230;54.164;-3.124;2022-12-07T11:23:32;7.15;;;2.95;;
47009;SDS011;59230;54.164;-3.124;2022-12-07T11:32:15;43.40;;;14.25;;
47009;SDS011;59230;54.164;-3.124;2022-12-07T11:37:40;35.85;;;10.90;;
47009;SDS011;59230;54.164;-3.124;2022-12-07T11:40:27;16.92;;;5.75;;
47009;SDS011;59230;54.164;-3.124;2022-12-07T11:43:04;11.88;;;4.75;;
47009;SDS011;59230;54.164;-3.124;2022-12-07T11:45:44;9.13;;;2.95;;
47009;SDS011;59230;54.164;-3.124;2022-12-07T11:48:17;11.48;;;3.70;;
47009;SDS011;59230;54.164;-3.124;2022-12-07T11:50:57;16.10;;;3.63;;
47009;SDS011;59230;54.164;-3.124;2022-12-07T11:53:32;19.70;;;8.50;;
47009;SDS011;59230;54.164;-3.124;2022-12-07T11:56:15;9.68;;;4.47;;
47009;SDS011;59230;54.164;-3.124;2022-12-07T12:04:34;67.65;;;26.73;;
47009;SDS011;59230;54.164;-3.124;2022-12-07T12:07:15;47.05;;;19.35;;
47009;SDS011;59230;54.164;-3.124;2022-12-07T12:10:04;39.50;;;18.02;;
47009;SDS011;59230;54.164;-3.124;2022-12-07T12:18:16;7.57;;;1.65;;
47009;SDS011;59230;54.164;-3.124;2022-12-07T12:21:12;3.92;;;1.10;;
47009;SDS011;59230;54.164;-3.124;2022-12-07T12:23:44;10.98;;;1.65;;
47009;SDS011;59230;54.164;-3.124;2022-12-07T12:26:19;10.07;;;1.70;;
47009;SDS011;59230;54.164;-3.124;2022-12-07T12:28:59;9.18;;;1.88;;
47009;SDS011;59230;54.164;-3.124;2022-12-07T12:31:39;5.85;;;1.80;;
47009;SDS011;59230;54.164;-3.124;2022-12-07T12:36:58;4.78;;;1.60;;
47009;SDS011;59230;54.164;-3.124;2022-12-07T12:39:26;10.10;;;1.73;;
47009;SDS011;59230;54.164;-3.124;2022-12-07T12:41:55;7.18;;;2.20;;
47009;SDS011;59230;54.164;-3.124;2022-12-07T12:59:28;6.95;;;1.95;;
47009;SDS011;59230;54.164;-3.124;2022-12-07T13:15:40;3.78;;;1.10;;
47009;SDS011;59230;54.164;-3.124;2022-12-07T13:26:15;5.22;;;1.35;;
47009;SDS011;59230;54.164;-3.124;2022-12-07T13:28:51;1.65;;;0.90;;
47009;SDS011;59230;54.164;-3.124;2022-12-07T13:39:49;5.45;;;1.00;;
47009;SDS011;59230;54.164;-3.124;2022-12-07T13:42:22;2.95;;;0.80;;
47009;SDS011;59230;54.164;-3.124;2022-12-07T13:44:57;3.53;;;0.90;;
47009;SDS011;59230;54.164;-3.124;2022-12-07T13:47:32;5.75;;;1.20;;
47009;SDS011;59230;54.164;-3.124;2022-12-07T13:50:21;12.02;;;1.75;;
47009;SDS011;59230;54.164;-3.124;2022-12-07T13:52:50;7.03;;;1.27;;
47009;SDS011;59230;54.164;-3.124;2022-12-07T13:55:23;6.00;;;1.60;;
47009;SDS011;59230;54.164;-3.124;2022-12-07T13:57:53;8.13;;;1.55;;
47009;SDS011;59230;54.164;-3.124;2022-12-07T14:00:20;7.88;;;1.67;;
47009;SDS011;59230;54.164;-3.124;2022-12-07T14:05:25;6.03;;;1.30;;
47009;SDS011;59230;54.164;-3.124;2022-12-07T14:10:32;6.55;;;1.90;;
47009;SDS011;59230;54.164;-3.124;2022-12-07T14:13:27;9.70;;;1.65;;
47009;SDS011;59230;54.164;-3.124;2022-12-07T14:16:02;10.13;;;1.67;;
47009;SDS011;59230;54.164;-3.124;2022-12-07T14:23:43;10.00;;;1.95;;
47009;SDS011;59230;54.164;-3.124;2022-12-07T14:26:13;5.93;;;1.30;;
47009;SDS011;59230;54.164;-3.124;2022-12-07T14:28:41;11.02;;;2.20;;
47009;SDS011;59230;54.164;-3.124;2022-12-07T14:33:46;9.40;;;1.90;;
47009;SDS011;59230;54.164;-3.124;2022-12-07T14:36:13;5.50;;;1.75;;
47009;SDS011;59230;54.164;-3.124;2022-12-07T14:38:41;4.30;;;1.50;;
47009;SDS011;59230;54.164;-3.124;2022-12-07T14:41:12;3.03;;;1.35;;
47009;SDS011;59230;54.164;-3.124;2022-12-07T14:44:09;4.70;;;1.35;;
47009;SDS011;59230;54.164;-3.124;2022-12-07T14:46:38;9.70;;;1.20;;
47009;SDS011;59230;54.164;-3.124;2022-12-07T14:49:04;6.22;;;1.20;;
47009;SDS011;59230;54.164;-3.124;2022-12-07T14:51:32;4.65;;;0.90;;
47009;SDS011;59230;54.164;-3.124;2022-12-07T14:53:59;6.70;;;1.20;;
47009;SDS011;59230;54.164;-3.124;2022-12-07T14:56:25;8.32;;;1.50;;
47009;SDS011;59230;54.164;-3.124;2022-12-07T14:58:54;8.05;;;1.58;;
47009;SDS011;59230;54.164;-3.124;2022-12-07T15:01:20;5.18;;;1.40;;
47009;SDS011;59230;54.164;-3.124;2022-12-07T15:03:46;10.48;;;2.30;;
47009;SDS011;59230;54.164;-3.124;2022-12-07T15:06:18;16.15;;;2.83;;
47009;SDS011;59230;54.164;-3.124;2022-12-07T15:08:43;4.43;;;2.00;;
47009;SDS011;59230;54.164;-3.124;2022-12-07T15:11:14;7.03;;;2.60;;
47009;SDS011;59230;54.164;-3.124;2022-12-07T15:13:43;6.80;;;2.40;;
47009;SDS011;59230;54.164;-3.124;2022-12-07T15:16:27;7.38;;;2.33;;
47009;SDS011;59230;54.164;-3.124;2022-12-07T15:18:55;5.78;;;1.45;;
47009;SDS011;59230;54.164;-3.124;2022-12-07T15:21:20;6.13;;;1.42;;
47009;SDS011;59230;54.164;-3.124;2022-12-07T15:23:46;4.75;;;1.20;;
47009;SDS011;59230;54.164;-3.124;2022-12-07T15:26:13;3.72;;;1.60;;
47009;SDS011;59230;54.164;-3.124;2022-12-07T15:28:43;12.98;;;2.20;;
47009;SDS011;59230;54.164;-3.124;2022-12-07T15:31:16;6.53;;;1.77;;
47009;SDS011;59230;54.164;-3.124;2022-12-07T15:33:43;8.32;;;2.13;;
47009;SDS011;59230;54.164;-3.124;2022-12-07T15:36:31;9.80;;;2.75;;
47009;SDS011;59230;54.164;-3.124;2022-12-07T15:38:58;10.05;;;3.05;;
47009;SDS011;59230;54.164;-3.124;2022-12-07T15:41:25;6.95;;;2.28;;
47009;SDS011;59230;54.164;-3.124;2022-12-07T15:43:51;7.32;;;2.70;;
47009;SDS011;59230;54.164;-3.124;2022-12-07T15:46:39;11.77;;;2.72;;
47009;SDS011;59230;54.164;-3.124;2022-12-07T15:49:17;10.45;;;3.00;;
47009;SDS011;59230;54.164;-3.124;2022-12-07T15:51:45;5.88;;;1.95;;
47009;SDS011;59230;54.164;-3.124;2022-12-07T15:54:16;5.65;;;2.10;;
47009;SDS011;59230;54.164;-3.124;2022-12-07T15:56:49;9.23;;;2.50;;
47009;SDS011;59230;54.164;-3.124;2022-12-07T15:59:16;7.32;;;2.08;;
47009;SDS011;59230;54.164;-3.124;2022-12-07T16:01:42;11.13;;;2.95;;
47009;SDS011;59230;54.164;-3.124;2022-12-07T16:04:08;6.80;;;2.65;;
47009;SDS011;59230;54.164;-3.124;2022-12-07T16:06:36;9.65;;;2.80;;
47009;SDS011;59230;54.164;-3.124;2022-12-07T16:09:05;12.68;;;3.30;;
47009;SDS011;59230;54.164;-3.124;2022-12-07T16:11:31;8.45;;;2.90;;
47009;SDS011;59230;54.164;-3.124;2022-12-07T16:13:59;10.02;;;2.83;;
47009;SDS011;59230;54.164;-3.124;2022-12-07T16:16:25;15.32;;;5.45;;
47009;SDS011;59230;54.164;-3.124;2022-12-07T16:18:52;41.22;;;23.27;;
47009;SDS011;59230;54.164;-3.124;2022-12-07T16:21:18;48.17;;;24.98;;
47009;SDS011;59230;54.164;-3.124;2022-12-07T16:23:43;51.28;;;25.35;;
47009;SDS011;59230;54.164;-3.124;2022-12-07T16:26:16;58.05;;;33.83;;
47009;SDS011;59230;54.164;-3.124;2022-12-07T16:28:43;71.28;;;41.78;;
47009;SDS011;59230;54.164;-3.124;2022-12-07T16:31:12;60.70;;;30.70;;
47009;SDS011;59230;54.164;-3.124;2022-12-07T16:33:41;31.27;;;16.52;;
47009;SDS011;59230;54.164;-3.124;2022-12-07T16:36:10;30.55;;;12.73;;
47009;SDS011;59230;54.164;-3.124;2022-12-07T16:38:39;21.90;;;10.18;;
47009;SDS011;59230;54.164;-3.124;2022-12-07T16:41:08;18.23;;;5.80;;
47009;SDS011;59230;54.164;-3.124;2022-12-07T16:43:34;12.90;;;3.60;;
47009;SDS011;59230;54.164;-3.124;2022-12-07T16:46:02;9.20;;;3.08;;
47009;SDS011;59230;54.164;-3.124;2022-12-07T16:48:31;7.47;;;2.88;;
47009;SDS011;59230;54.164;-3.124;2022-12-07T16:50:56;12.13;;;2.90;;
47009;SDS011;59230;54.164;-3.124;2022-12-07T16:53:23;7.97;;;2.30;;
47009;SDS011;59230;54.164;-3.124;2022-12-07T16:55:50;6.45;;;1.90;;
47009;SDS011;59230;54.164;-3.124;2022-12-07T16:58:18;10.15;;;2.55;;
47009;SDS011;59230;54.164;-3.124;2022-12-07T17:00:43;8.20;;;2.30;;
47009;SDS011;59230;54.164;-3.124;2022-12-07T17:03:11;11.02;;;1.90;;
47009;SDS011;59230;54.164;-3.124;2022-12-07T17:05:38;5.90;;;2.20;;
47009;SDS011;59230;54.164;-3.124;2022-12-07T17:08:04;6.43;;;2.15;;
47009;SDS011;59230;54.164;-3.124;2022-12-07T17:10:34;6.95;;;2.15;;
47009;SDS011;59230;54.164;-3.124;2022-12-07T17:13:02;4.38;;;1.70;;
47009;SDS011;59230;54.164;-3.124;2022-12-07T17:15:58;9.07;;;1.83;;
47009;SDS011;59230;54.164;-3.124;2022-12-07T17:18:34;6.80;;;1.98;;
47009;SDS011;59230;54.164;-3.124;2022-12-07T17:21:05;6.57;;;1.35;;
47009;SDS011;59230;54.164;-3.124;2022-12-07T17:23:36;10.70;;;1.52;;
47009;SDS011;59230;54.164;-3.124;2022-12-07T17:26:06;4.63;;;1.05;;
47009;SDS011;59230;54.164;-3.124;2022-12-07T17:28:36;3.83;;;0.90;;
47009;SDS011;59230;54.164;-3.124;2022-12-07T17:31:06;9.43;;;1.77;;
47009;SDS011;59230;54.164;-3.124;2022-12-07T17:33:35;3.67;;;1.83;;
47009;SDS011;59230;54.164;-3.124;2022-12-07T17:36:14;6.88;;;1.25;;